sensor_id;sensor_type;location;lat;lon;timestamp;P1;durP1;ratioP1;P2;durP2;ratioP2
21843;SDS011;11084;52.482;9.108;2023-03-02T00:00:53;1.57;;;1.20;;
21843;SDS011;11084;52.482;9.108;2023-03-02T00:03:23;5.40;;;3.10;;
21843;SDS011;11084;52.482;9.108;2023-03-02T00:05:50;4.20;;;2.33;;
21843;SDS011;11084;52.482;9.108;2023-03-02T00:08:16;5.90;;;2.60;;
21843;SDS011;11084;52.482;9.108;2023-03-02T00:10:43;7.20;;;2.57;;
21843;SDS011;11084;52.482;9.108;2023-03-02T00:13:10;5.30;;;2.83;;
21843;SDS011;11084;52.482;9.108;2023-03-02T00:15:38;2.87;;;1.83;;
21843;SDS011;11084;52.482;9.108;2023-03-02T00:18:05;4.30;;;2.00;;
21843;SDS011;11084;52.482;9.108;2023-03-02T00:20:31;1.73;;;1.27;;
21843;SDS011;11084;52.482;9.108;2023-03-02T00:22:58;4.87;;;2.50;;
21843;SDS011;11084;52.482;9.108;2023-03-02T00:25:24;6.70;;;3.13;;
21843;SDS011;11084;52.482;9.108;2023-03-02T00:27:51;4.00;;;2.60;;
21843;SDS011;11084;52.482;9.108;2023-03-02T00:30:17;2.33;;;1.97;;
21843;SDS011;11084;52.482;9.108;2023-03-02T00:32:43;4.23;;;1.83;;
21843;SDS011;11084;52.482;9.108;2023-03-02T00:35:10;5.90;;;3.80;;
21843;SDS011;11084;52.482;9.108;2023-03-02T00:37:36;2.70;;;1.90;;
21843;SDS011;11084;52.482;9.108;2023-03-02T00:40:06;26.37;;;3.47;;
21843;SDS011;11084;52.482;9.108;2023-03-02T00:42:34;2.93;;;1.93;;
21843;SDS011;11084;52.482;9.108;2023-03-02T00:45:02;2.40;;;2.20;;
21843;SDS011;11084;52.482;9.108;2023-03-02T00:47:32;4.03;;;1.40;;
21843;SDS011;11084;52.482;9.108;2023-03-02T00:49:59;5.23;;;2.63;;
21843;SDS011;11084;52.482;9.108;2023-03-02T00:52:30;2.80;;;2.47;;
21843;SDS011;11084;52.482;9.108;2023-03-02T00:54:57;2.33;;;1.77;;
21843;SDS011;11084;52.482;9.108;2023-03-02T00:57:24;2.97;;;1.77;;
21843;SDS011;11084;52.482;9.108;2023-03-02T00:59:52;4.03;;;2.23;;
21843;SDS011;11084;52.482;9.108;2023-03-02T01:02:39;2.50;;;2.17;;
21843;SDS011;11084;52.482;9.108;2023-03-02T01:05:10;1.77;;;1.60;;
21843;SDS011;11084;52.482;9.108;2023-03-02T01:07:36;3.17;;;2.40;;
21843;SDS011;11084;52.482;9.108;2023-03-02T01:10:02;4.47;;;2.47;;
21843;SDS011;11084;52.482;9.108;2023-03-02T01:12:30;2.87;;;2.17;;
21843;SDS011;11084;52.482;9.108;2023-03-02T01:14:56;4.93;;;2.60;;
21843;SDS011;11084;52.482;9.108;2023-03-02T01:17:23;2.67;;;1.70;;
21843;SDS011;11084;52.482;9.108;2023-03-02T01:19:50;2.40;;;1.67;;
21843;SDS011;11084;52.482;9.108;2023-03-02T01:22:17;5.03;;;2.17;;
21843;SDS011;11084;52.482;9.108;2023-03-02T01:24:44;3.37;;;1.80;;
21843;SDS011;11084;52.482;9.108;2023-03-02T01:27:10;3.53;;;2.73;;
21843;SDS011;11084;52.482;9.108;2023-03-02T01:29:36;6.57;;;2.70;;
21843;SDS011;11084;52.482;9.108;2023-03-02T01:54:37;4.00;;;2.53;;
21843;SDS011;11084;52.482;9.108;2023-03-02T01:57:05;5.87;;;2.53;;
21843;SDS011;11084;52.482;9.108;2023-03-02T01:59:34;7.23;;;3.83;;
21843;SDS011;11084;52.482;9.108;2023-03-02T02:02:02;3.60;;;2.77;;
21843;SDS011;11084;52.482;9.108;2023-03-02T02:04:32;2.63;;;2.37;;
21843;SDS011;11084;52.482;9.108;2023-03-02T02:07:03;3.30;;;2.23;;
21843;SDS011;11084;52.482;9.108;2023-03-02T02:09:37;3.67;;;2.60;;
21843;SDS011;11084;52.482;9.108;2023-03-02T02:12:15;3.90;;;2.43;;
21843;SDS011;11084;52.482;9.108;2023-03-02T02:14:45;5.93;;;2.47;;
21843;SDS011;11084;52.482;9.108;2023-03-02T02:17:14;2.77;;;2.57;;
21843;SDS011;11084;52.482;9.108;2023-03-02T02:25:17;2.27;;;2.07;;
21843;SDS011;11084;52.482;9.108;2023-03-02T02:28:13;7.43;;;3.03;;
21843;SDS011;11084;52.482;9.108;2023-03-02T02:30:49;4.20;;;2.80;;
21843;SDS011;11084;52.482;9.108;2023-03-02T02:33:26;6.70;;;3.57;;
21843;SDS011;11084;52.482;9.108;2023-03-02T02:35:58;3.37;;;2.70;;
21843;SDS011;11084;52.482;9.108;2023-03-02T02:38:36;9.13;;;4.33;;
21843;SDS011;11084;52.482;9.108;2023-03-02T02:41:06;8.33;;;4.53;;
21843;SDS011;11084;52.482;9.108;2023-03-02T02:43:37;7.70;;;3.77;;
21843;SDS011;11084;52.482;9.108;2023-03-02T02:46:05;17.13;;;4.10;;
21843;SDS011;11084;52.482;9.108;2023-03-02T02:48:31;9.43;;;4.17;;
21843;SDS011;11084;52.482;9.108;2023-03-02T02:50:58;5.30;;;3.80;;
21843;SDS011;11084;52.482;9.108;2023-03-02T02:53:27;9.70;;;4.43;;
21843;SDS011;11084;52.482;9.108;2023-03-02T02:56:02;5.17;;;3.40;;
21843;SDS011;11084;52.482;9.108;2023-03-02T02:58:34;9.23;;;4.13;;
21843;SDS011;11084;52.482;9.108;2023-03-02T03:01:11;5.37;;;4.50;;
21843;SDS011;11084;52.482;9.108;2023-03-02T03:03:41;8.47;;;2.80;;
21843;SDS011;11084;52.482;9.108;2023-03-02T03:06:19;5.87;;;3.63;;
21843;SDS011;11084;52.482;9.108;2023-03-02T03:08:54;11.33;;;3.27;;
21843;SDS011;11084;52.482;9.108;2023-03-02T03:11:42;9.10;;;5.20;;
21843;SDS011;11084;52.482;9.108;2023-03-02T03:14:17;5.93;;;2.87;;
21843;SDS011;11084;52.482;9.108;2023-03-02T03:16:49;5.13;;;3.73;;
21843;SDS011;11084;52.482;9.108;2023-03-02T03:19:26;4.80;;;3.27;;
21843;SDS011;11084;52.482;9.108;2023-03-02T03:21:58;7.87;;;3.97;;
21843;SDS011;11084;52.482;9.108;2023-03-02T03:24:30;8.60;;;3.73;;
21843;SDS011;11084;52.482;9.108;2023-03-02T03:26:59;10.70;;;4.10;;
21843;SDS011;11084;52.482;9.108;2023-03-02T03:29:27;5.10;;;3.13;;
21843;SDS011;11084;52.482;9.108;2023-03-02T03:31:58;6.07;;;4.43;;
21843;SDS011;11084;52.482;9.108;2023-03-02T03:34:26;22.60;;;6.33;;
21843;SDS011;11084;52.482;9.108;2023-03-02T03:36:54;7.87;;;4.53;;
21843;SDS011;11084;52.482;9.108;2023-03-02T03:39:29;9.00;;;4.47;;
21843;SDS011;11084;52.482;9.108;2023-03-02T03:41:56;6.17;;;3.30;;
21843;SDS011;11084;52.482;9.108;2023-03-02T03:44:23;7.03;;;3.90;;
21843;SDS011;11084;52.482;9.108;2023-03-02T03:46:49;6.23;;;3.87;;
21843;SDS011;11084;52.482;9.108;2023-03-02T03:49:16;4.67;;;3.03;;
21843;SDS011;11084;52.482;9.108;2023-03-02T03:51:42;12.63;;;5.30;;
21843;SDS011;11084;52.482;9.108;2023-03-02T03:54:09;9.97;;;4.90;;
21843;SDS011;11084;52.482;9.108;2023-03-02T03:56:43;7.53;;;4.30;;
21843;SDS011;11084;52.482;9.108;2023-03-02T03:59:16;5.73;;;3.97;;
21843;SDS011;11084;52.482;9.108;2023-03-02T04:01:56;6.53;;;4.57;;
21843;SDS011;11084;52.482;9.108;2023-03-02T04:04:30;12.83;;;5.23;;
21843;SDS011;11084;52.482;9.108;2023-03-02T04:07:01;6.57;;;3.77;;
21843;SDS011;11084;52.482;9.108;2023-03-02T04:09:31;7.47;;;4.37;;
21843;SDS011;11084;52.482;9.108;2023-03-02T04:12:03;16.43;;;4.67;;
21843;SDS011;11084;52.482;9.108;2023-03-02T04:14:31;5.07;;;2.83;;
21843;SDS011;11084;52.482;9.108;2023-03-02T04:16:58;15.40;;;4.83;;
21843;SDS011;11084;52.482;9.108;2023-03-02T04:19:24;24.43;;;5.90;;
21843;SDS011;11084;52.482;9.108;2023-03-02T04:21:53;4.57;;;3.53;;
21843;SDS011;11084;52.482;9.108;2023-03-02T04:24:21;8.47;;;4.00;;
21843;SDS011;11084;52.482;9.108;2023-03-02T04:26:50;7.23;;;3.47;;
21843;SDS011;11084;52.482;9.108;2023-03-02T04:29:17;7.00;;;4.27;;
21843;SDS011;11084;52.482;9.108;2023-03-02T04:31:44;6.60;;;2.40;;
21843;SDS011;11084;52.482;9.108;2023-03-02T04:34:14;6.23;;;3.27;;
21843;SDS011;11084;52.482;9.108;2023-03-02T04:36:42;27.43;;;4.63;;
21843;SDS011;11084;52.482;9.108;2023-03-02T04:39:11;4.43;;;3.80;;
21843;SDS011;11084;52.482;9.108;2023-03-02T04:41:43;7.10;;;3.23;;
21843;SDS011;11084;52.482;9.108;2023-03-02T04:44:12;6.90;;;3.83;;
21843;SDS011;11084;52.482;9.108;2023-03-02T04:46:40;3.83;;;1.53;;
21843;SDS011;11084;52.482;9.108;2023-03-02T04:49:07;10.37;;;2.23;;
21843;SDS011;11084;52.482;9.108;2023-03-02T04:51:34;5.67;;;3.23;;
21843;SDS011;11084;52.482;9.108;2023-03-02T04:54:06;8.10;;;3.80;;
21843;SDS011;11084;52.482;9.108;2023-03-02T04:56:38;4.83;;;3.27;;
21843;SDS011;11084;52.482;9.108;2023-03-02T04:59:05;6.13;;;3.27;;
21843;SDS011;11084;52.482;9.108;2023-03-02T05:01:32;11.93;;;2.87;;
21843;SDS011;11084;52.482;9.108;2023-03-02T05:03:58;6.53;;;3.20;;
21843;SDS011;11084;52.482;9.108;2023-03-02T05:06:24;7.27;;;4.00;;
21843;SDS011;11084;52.482;9.108;2023-03-02T05:08:51;5.33;;;3.93;;
21843;SDS011;11084;52.482;9.108;2023-03-02T05:11:17;6.03;;;4.17;;
21843;SDS011;11084;52.482;9.108;2023-03-02T05:13:53;18.27;;;4.80;;
21843;SDS011;11084;52.482;9.108;2023-03-02T05:16:22;8.37;;;3.80;;
21843;SDS011;11084;52.482;9.108;2023-03-02T05:18:50;7.50;;;4.40;;
21843;SDS011;11084;52.482;9.108;2023-03-02T05:21:17;8.50;;;3.77;;
21843;SDS011;11084;52.482;9.108;2023-03-02T05:23:44;5.63;;;4.53;;
21843;SDS011;11084;52.482;9.108;2023-03-02T05:26:13;8.43;;;4.17;;
21843;SDS011;11084;52.482;9.108;2023-03-02T05:28:39;10.10;;;3.27;;
21843;SDS011;11084;52.482;9.108;2023-03-02T05:31:06;5.63;;;3.40;;
21843;SDS011;11084;52.482;9.108;2023-03-02T05:33:32;5.90;;;4.40;;
21843;SDS011;11084;52.482;9.108;2023-03-02T05:35:59;5.50;;;2.83;;
21843;SDS011;11084;52.482;9.108;2023-03-02T05:38:25;4.13;;;3.00;;
21843;SDS011;11084;52.482;9.108;2023-03-02T05:40:52;8.13;;;4.27;;
21843;SDS011;11084;52.482;9.108;2023-03-02T05:43:19;7.30;;;4.77;;
21843;SDS011;11084;52.482;9.108;2023-03-02T05:45:46;6.73;;;4.23;;
21843;SDS011;11084;52.482;9.108;2023-03-02T05:48:13;3.60;;;3.13;;
21843;SDS011;11084;52.482;9.108;2023-03-02T05:50:39;4.60;;;3.07;;
21843;SDS011;11084;52.482;9.108;2023-03-02T05:53:06;3.73;;;2.40;;
21843;SDS011;11084;52.482;9.108;2023-03-02T05:55:33;7.33;;;3.63;;
21843;SDS011;11084;52.482;9.108;2023-03-02T05:58:08;16.90;;;3.63;;
21843;SDS011;11084;52.482;9.108;2023-03-02T06:00:39;15.90;;;4.63;;
21843;SDS011;11084;52.482;9.108;2023-03-02T06:03:05;9.73;;;4.07;;
21843;SDS011;11084;52.482;9.108;2023-03-02T06:05:32;6.63;;;4.13;;
21843;SDS011;11084;52.482;9.108;2023-03-02T06:07:59;3.80;;;2.43;;
21843;SDS011;11084;52.482;9.108;2023-03-02T06:10:26;3.63;;;2.63;;
21843;SDS011;11084;52.482;9.108;2023-03-02T06:12:52;5.47;;;3.20;;
21843;SDS011;11084;52.482;9.108;2023-03-02T06:15:19;4.20;;;3.07;;
21843;SDS011;11084;52.482;9.108;2023-03-02T06:17:45;4.20;;;3.13;;
21843;SDS011;11084;52.482;9.108;2023-03-02T06:20:12;2.60;;;2.07;;
21843;SDS011;11084;52.482;9.108;2023-03-02T06:22:41;1.97;;;1.77;;
21843;SDS011;11084;52.482;9.108;2023-03-02T06:25:14;6.30;;;3.80;;
21843;SDS011;11084;52.482;9.108;2023-03-02T06:27:46;6.63;;;4.07;;
21843;SDS011;11084;52.482;9.108;2023-03-02T06:30:16;6.23;;;3.33;;
21843;SDS011;11084;52.482;9.108;2023-03-02T06:32:45;24.23;;;3.13;;
21843;SDS011;11084;52.482;9.108;2023-03-02T06:35:11;9.10;;;3.90;;
21843;SDS011;11084;52.482;9.108;2023-03-02T06:37:38;5.80;;;3.43;;
21843;SDS011;11084;52.482;9.108;2023-03-02T06:40:06;5.60;;;3.50;;
21843;SDS011;11084;52.482;9.108;2023-03-02T06:42:34;4.17;;;2.53;;
21843;SDS011;11084;52.482;9.108;2023-03-02T06:45:02;5.97;;;2.00;;
21843;SDS011;11084;52.482;9.108;2023-03-02T06:47:29;6.13;;;2.90;;
21843;SDS011;11084;52.482;9.108;2023-03-02T06:49:55;6.37;;;3.67;;
21843;SDS011;11084;52.482;9.108;2023-03-02T06:52:22;6.70;;;3.53;;
21843;SDS011;11084;52.482;9.108;2023-03-02T06:54:48;3.03;;;2.73;;
21843;SDS011;11084;52.482;9.108;2023-03-02T06:57:14;3.80;;;2.30;;
21843;SDS011;11084;52.482;9.108;2023-03-02T06:59:40;7.53;;;3.47;;
21843;SDS011;11084;52.482;9.108;2023-03-02T07:02:08;11.00;;;5.33;;
21843;SDS011;11084;52.482;9.108;2023-03-02T07:04:35;6.03;;;4.03;;
21843;SDS011;11084;52.482;9.108;2023-03-02T07:07:01;3.97;;;3.00;;
21843;SDS011;11084;52.482;9.108;2023-03-02T07:09:27;9.63;;;4.97;;
21843;SDS011;11084;52.482;9.108;2023-03-02T07:11:55;5.40;;;3.13;;
21843;SDS011;11084;52.482;9.108;2023-03-02T07:14:21;8.00;;;3.30;;
21843;SDS011;11084;52.482;9.108;2023-03-02T07:16:47;9.47;;;2.27;;
21843;SDS011;11084;52.482;9.108;2023-03-02T07:19:13;5.03;;;3.10;;
21843;SDS011;11084;52.482;9.108;2023-03-02T07:21:40;8.23;;;3.40;;
21843;SDS011;11084;52.482;9.108;2023-03-02T07:24:06;7.53;;;3.40;;
21843;SDS011;11084;52.482;9.108;2023-03-02T07:26:32;5.97;;;4.03;;
21843;SDS011;11084;52.482;9.108;2023-03-02T07:28:59;3.77;;;2.37;;
21843;SDS011;11084;52.482;9.108;2023-03-02T07:31:26;3.97;;;3.57;;
21843;SDS011;11084;52.482;9.108;2023-03-02T07:33:53;5.20;;;3.83;;
21843;SDS011;11084;52.482;9.108;2023-03-02T07:36:19;6.33;;;3.23;;
21843;SDS011;11084;52.482;9.108;2023-03-02T07:38:45;6.80;;;2.57;;
21843;SDS011;11084;52.482;9.108;2023-03-02T07:41:12;4.63;;;2.90;;
21843;SDS011;11084;52.482;9.108;2023-03-02T07:43:41;3.27;;;2.97;;
21843;SDS011;11084;52.482;9.108;2023-03-02T07:46:08;7.33;;;3.13;;
21843;SDS011;11084;52.482;9.108;2023-03-02T07:48:34;8.23;;;3.60;;
21843;SDS011;11084;52.482;9.108;2023-03-02T07:51:01;5.87;;;2.80;;
21843;SDS011;11084;52.482;9.108;2023-03-02T07:53:29;9.57;;;3.80;;
21843;SDS011;11084;52.482;9.108;2023-03-02T07:55:55;4.43;;;3.20;;
21843;SDS011;11084;52.482;9.108;2023-03-02T07:58:22;3.97;;;3.10;;
21843;SDS011;11084;52.482;9.108;2023-03-02T08:00:49;4.23;;;2.67;;
21843;SDS011;11084;52.482;9.108;2023-03-02T08:03:15;12.10;;;4.77;;
21843;SDS011;11084;52.482;9.108;2023-03-02T08:05:41;7.20;;;4.83;;
21843;SDS011;11084;52.482;9.108;2023-03-02T08:08:07;4.67;;;3.17;;
21843;SDS011;11084;52.482;9.108;2023-03-02T08:10:33;4.87;;;3.27;;
21843;SDS011;11084;52.482;9.108;2023-03-02T08:24:23;4.23;;;2.40;;
21843;SDS011;11084;52.482;9.108;2023-03-02T08:26:49;4.53;;;1.97;;
21843;SDS011;11084;52.482;9.108;2023-03-02T08:29:15;7.20;;;2.23;;
21843;SDS011;11084;52.482;9.108;2023-03-02T08:31:42;6.23;;;3.73;;
21843;SDS011;11084;52.482;9.108;2023-03-02T08:34:08;20.90;;;2.80;;
21843;SDS011;11084;52.482;9.108;2023-03-02T08:36:34;5.70;;;3.20;;
21843;SDS011;11084;52.482;9.108;2023-03-02T08:39:00;5.67;;;2.97;;
21843;SDS011;11084;52.482;9.108;2023-03-02T08:41:35;4.17;;;3.17;;
21843;SDS011;11084;52.482;9.108;2023-03-02T08:44:02;5.43;;;2.73;;
21843;SDS011;11084;52.482;9.108;2023-03-02T08:46:28;2.20;;;2.00;;
21843;SDS011;11084;52.482;9.108;2023-03-02T08:48:54;8.97;;;3.33;;
21843;SDS011;11084;52.482;9.108;2023-03-02T08:51:21;5.07;;;2.57;;
21843;SDS011;11084;52.482;9.108;2023-03-02T08:53:50;6.07;;;2.80;;
21843;SDS011;11084;52.482;9.108;2023-03-02T08:56:26;5.67;;;2.97;;
21843;SDS011;11084;52.482;9.108;2023-03-02T08:59:03;7.73;;;3.83;;
21843;SDS011;11084;52.482;9.108;2023-03-02T09:01:33;5.10;;;2.53;;
21843;SDS011;11084;52.482;9.108;2023-03-02T09:04:02;7.47;;;4.33;;
21843;SDS011;11084;52.482;9.108;2023-03-02T09:06:31;4.67;;;3.23;;
21843;SDS011;11084;52.482;9.108;2023-03-02T09:09:00;5.30;;;3.97;;
21843;SDS011;11084;52.482;9.108;2023-03-02T09:11:26;5.30;;;2.93;;
21843;SDS011;11084;52.482;9.108;2023-03-02T09:13:52;7.70;;;3.37;;
21843;SDS011;11084;52.482;9.108;2023-03-02T09:16:19;7.10;;;3.87;;
21843;SDS011;11084;52.482;9.108;2023-03-02T09:18:45;9.07;;;4.27;;
21843;SDS011;11084;52.482;9.108;2023-03-02T09:21:12;8.13;;;3.73;;
21843;SDS011;11084;52.482;9.108;2023-03-02T09:23:38;9.40;;;4.50;;
21843;SDS011;11084;52.482;9.108;2023-03-02T09:26:04;6.00;;;3.13;;
21843;SDS011;11084;52.482;9.108;2023-03-02T09:28:30;4.73;;;3.13;;
21843;SDS011;11084;52.482;9.108;2023-03-02T09:30:57;8.07;;;3.17;;
21843;SDS011;11084;52.482;9.108;2023-03-02T09:33:27;7.00;;;3.97;;
21843;SDS011;11084;52.482;9.108;2023-03-02T09:35:54;7.93;;;3.47;;
21843;SDS011;11084;52.482;9.108;2023-03-02T09:38:21;4.03;;;2.63;;
21843;SDS011;11084;52.482;9.108;2023-03-02T09:47:18;4.33;;;3.03;;
21843;SDS011;11084;52.482;9.108;2023-03-02T09:53:10;4.67;;;3.70;;
21843;SDS011;11084;52.482;9.108;2023-03-02T09:56:18;6.00;;;3.83;;
21843;SDS011;11084;52.482;9.108;2023-03-02T09:58:51;12.73;;;5.13;;
21843;SDS011;11084;52.482;9.108;2023-03-02T10:02:19;7.97;;;3.30;;
21843;SDS011;11084;52.482;9.108;2023-03-02T10:05:12;6.93;;;3.87;;
21843;SDS011;11084;52.482;9.108;2023-03-02T10:07:58;6.30;;;3.47;;
21843;SDS011;11084;52.482;9.108;2023-03-02T10:10:33;7.23;;;3.20;;
21843;SDS011;11084;52.482;9.108;2023-03-02T10:30:41;9.33;;;4.50;;
21843;SDS011;11084;52.482;9.108;2023-03-02T10:33:10;8.17;;;4.30;;
21843;SDS011;11084;52.482;9.108;2023-03-02T10:35:46;5.83;;;3.60;;
21843;SDS011;11084;52.482;9.108;2023-03-02T10:38:17;7.30;;;4.47;;
21843;SDS011;11084;52.482;9.108;2023-03-02T10:40:46;9.33;;;3.97;;
21843;SDS011;11084;52.482;9.108;2023-03-02T10:46:13;10.40;;;5.10;;
21843;SDS011;11084;52.482;9.108;2023-03-02T10:48:45;12.50;;;4.37;;
21843;SDS011;11084;52.482;9.108;2023-03-02T10:54:01;7.87;;;5.13;;
21843;SDS011;11084;52.482;9.108;2023-03-02T10:56:34;9.23;;;4.03;;
21843;SDS011;11084;52.482;9.108;2023-03-02T10:59:11;9.97;;;4.53;;
21843;SDS011;11084;52.482;9.108;2023-03-02T11:02:18;8.60;;;3.93;;
21843;SDS011;11084;52.482;9.108;2023-03-02T11:04:55;5.20;;;3.13;;
21843;SDS011;11084;52.482;9.108;2023-03-02T11:07:26;8.60;;;4.77;;
21843;SDS011;11084;52.482;9.108;2023-03-02T11:12:46;8.53;;;3.87;;
21843;SDS011;11084;52.482;9.108;2023-03-02T11:15:20;8.00;;;4.70;;
21843;SDS011;11084;52.482;9.108;2023-03-02T11:18:04;7.93;;;3.70;;
21843;SDS011;11084;52.482;9.108;2023-03-02T11:20:59;8.23;;;4.40;;
21843;SDS011;11084;52.482;9.108;2023-03-02T11:23:32;8.33;;;3.97;;
21843;SDS011;11084;52.482;9.108;2023-03-02T11:29:00;8.77;;;4.90;;
21843;SDS011;11084;52.482;9.108;2023-03-02T11:37:40;7.50;;;4.07;;
21843;SDS011;11084;52.482;9.108;2023-03-02T11:42:54;6.37;;;3.30;;
21843;SDS011;11084;52.482;9.108;2023-03-02T11:45:24;9.13;;;3.53;;
21843;SDS011;11084;52.482;9.108;2023-03-02T11:48:05;10.37;;;4.30;;
21843;SDS011;11084;52.482;9.108;2023-03-02T11:50:57;7.17;;;4.10;;
21843;SDS011;11084;52.482;9.108;2023-03-02T11:56:21;8.67;;;4.33;;
21843;SDS011;11084;52.482;9.108;2023-03-02T11:58:50;10.73;;;4.53;;
21843;SDS011;11084;52.482;9.108;2023-03-02T12:01:22;8.40;;;4.60;;
21843;SDS011;11084;52.482;9.108;2023-03-02T12:03:51;9.27;;;3.70;;
21843;SDS011;11084;52.482;9.108;2023-03-02T12:09:09;8.27;;;3.60;;
21843;SDS011;11084;52.482;9.108;2023-03-02T12:11:55;8.70;;;3.90;;
21843;SDS011;11084;52.482;9.108;2023-03-02T12:14:35;7.53;;;3.60;;
21843;SDS011;11084;52.482;9.108;2023-03-02T12:20:36;9.87;;;4.53;;
21843;SDS011;11084;52.482;9.108;2023-03-02T12:22:50;8.97;;;4.03;;
21843;SDS011;11084;52.482;9.108;2023-03-02T12:27:43;9.03;;;3.87;;
21843;SDS011;11084;52.482;9.108;2023-03-02T12:33:36;8.70;;;4.93;;
21843;SDS011;11084;52.482;9.108;2023-03-02T12:35:42;7.43;;;4.30;;
21843;SDS011;11084;52.482;9.108;2023-03-02T12:44:21;10.37;;;4.17;;
21843;SDS011;11084;52.482;9.108;2023-03-02T12:46:52;9.27;;;4.90;;
21843;SDS011;11084;52.482;9.108;2023-03-02T12:57:26;6.47;;;3.53;;
21843;SDS011;11084;52.482;9.108;2023-03-02T12:59:54;7.13;;;4.03;;
21843;SDS011;11084;52.482;9.108;2023-03-02T13:02:25;7.20;;;4.23;;
21843;SDS011;11084;52.482;9.108;2023-03-02T13:04:58;7.17;;;4.00;;
21843;SDS011;11084;52.482;9.108;2023-03-02T13:07:36;6.13;;;4.07;;
21843;SDS011;11084;52.482;9.108;2023-03-02T13:10:36;6.83;;;4.33;;
21843;SDS011;11084;52.482;9.108;2023-03-02T13:16:01;11.30;;;4.03;;
21843;SDS011;11084;52.482;9.108;2023-03-02T13:18:33;10.57;;;5.00;;
21843;SDS011;11084;52.482;9.108;2023-03-02T13:21:03;9.87;;;4.50;;
21843;SDS011;11084;52.482;9.108;2023-03-02T13:23:31;9.57;;;4.50;;
21843;SDS011;11084;52.482;9.108;2023-03-02T13:26:02;7.53;;;3.70;;
21843;SDS011;11084;52.482;9.108;2023-03-02T13:28:31;7.40;;;3.97;;
21843;SDS011;11084;52.482;9.108;2023-03-02T13:33:49;8.67;;;4.13;;
21843;SDS011;11084;52.482;9.108;2023-03-02T13:36:21;8.20;;;4.57;;
21843;SDS011;11084;52.482;9.108;2023-03-02T13:39:00;9.57;;;4.80;;
21843;SDS011;11084;52.482;9.108;2023-03-02T13:41:29;9.63;;;4.10;;
21843;SDS011;11084;52.482;9.108;2023-03-02T13:43:57;10.33;;;4.30;;
21843;SDS011;11084;52.482;9.108;2023-03-02T13:46:36;6.77;;;3.90;;
21843;SDS011;11084;52.482;9.108;2023-03-02T13:49:03;9.03;;;3.50;;
21843;SDS011;11084;52.482;9.108;2023-03-02T13:51:32;5.77;;;4.07;;
21843;SDS011;11084;52.482;9.108;2023-03-02T13:54:02;9.77;;;4.23;;
21843;SDS011;11084;52.482;9.108;2023-03-02T13:56:47;6.73;;;4.33;;
21843;SDS011;11084;52.482;9.108;2023-03-02T13:59:15;9.20;;;4.27;;
21843;SDS011;11084;52.482;9.108;2023-03-02T14:01:52;7.60;;;4.03;;
21843;SDS011;11084;52.482;9.108;2023-03-02T14:04:42;6.80;;;3.83;;
21843;SDS011;11084;52.482;9.108;2023-03-02T14:07:08;10.67;;;4.87;;
21843;SDS011;11084;52.482;9.108;2023-03-02T14:09:34;8.00;;;4.43;;
21843;SDS011;11084;52.482;9.108;2023-03-02T14:12:00;8.63;;;4.17;;
21843;SDS011;11084;52.482;9.108;2023-03-02T14:14:26;9.07;;;4.40;;
21843;SDS011;11084;52.482;9.108;2023-03-02T14:17:02;8.60;;;4.57;;
21843;SDS011;11084;52.482;9.108;2023-03-02T14:19:36;10.50;;;5.47;;
21843;SDS011;11084;52.482;9.108;2023-03-02T14:22:02;14.23;;;5.37;;
21843;SDS011;11084;52.482;9.108;2023-03-02T14:24:28;8.33;;;4.53;;
21843;SDS011;11084;52.482;9.108;2023-03-02T14:26:54;11.37;;;4.80;;
21843;SDS011;11084;52.482;9.108;2023-03-02T14:29:28;8.00;;;4.27;;
21843;SDS011;11084;52.482;9.108;2023-03-02T14:31:57;13.30;;;5.60;;
21843;SDS011;11084;52.482;9.108;2023-03-02T14:34:27;13.63;;;4.90;;
21843;SDS011;11084;52.482;9.108;2023-03-02T14:36:55;12.13;;;4.70;;
21843;SDS011;11084;52.482;9.108;2023-03-02T14:39:36;8.23;;;4.23;;
21843;SDS011;11084;52.482;9.108;2023-03-02T14:42:11;11.53;;;4.57;;
21843;SDS011;11084;52.482;9.108;2023-03-02T14:44:43;9.23;;;3.93;;
21843;SDS011;11084;52.482;9.108;2023-03-02T14:47:12;9.80;;;5.07;;
21843;SDS011;11084;52.482;9.108;2023-03-02T14:49:40;9.63;;;3.87;;
21843;SDS011;11084;52.482;9.108;2023-03-02T14:52:12;10.07;;;4.63;;
21843;SDS011;11084;52.482;9.108;2023-03-02T14:54:54;11.50;;;4.67;;
21843;SDS011;11084;52.482;9.108;2023-03-02T14:57:28;9.40;;;5.10;;
21843;SDS011;11084;52.482;9.108;2023-03-02T14:59:58;9.80;;;4.67;;
21843;SDS011;11084;52.482;9.108;2023-03-02T15:02:24;7.83;;;4.93;;
21843;SDS011;11084;52.482;9.108;2023-03-02T15:04:50;10.20;;;4.87;;
21843;SDS011;11084;52.482;9.108;2023-03-02T15:07:19;9.77;;;4.70;;
21843;SDS011;11084;52.482;9.108;2023-03-02T15:09:45;7.50;;;3.67;;
21843;SDS011;11084;52.482;9.108;2023-03-02T15:12:12;11.57;;;5.27;;
21843;SDS011;11084;52.482;9.108;2023-03-02T15:14:38;5.97;;;4.23;;
21843;SDS011;11084;52.482;9.108;2023-03-02T15:17:04;10.00;;;4.97;;
21843;SDS011;11084;52.482;9.108;2023-03-02T15:19:31;10.97;;;4.87;;
21843;SDS011;11084;52.482;9.108;2023-03-02T15:21:57;13.10;;;4.77;;
21843;SDS011;11084;52.482;9.108;2023-03-02T15:24:23;11.60;;;5.13;;
21843;SDS011;11084;52.482;9.108;2023-03-02T15:26:50;11.40;;;4.50;;
21843;SDS011;11084;52.482;9.108;2023-03-02T15:29:18;14.73;;;5.87;;
21843;SDS011;11084;52.482;9.108;2023-03-02T15:31:45;11.30;;;5.03;;
21843;SDS011;11084;52.482;9.108;2023-03-02T15:34:11;14.50;;;5.27;;
21843;SDS011;11084;52.482;9.108;2023-03-02T15:36:38;11.77;;;5.73;;
21843;SDS011;11084;52.482;9.108;2023-03-02T15:39:04;13.83;;;5.93;;
21843;SDS011;11084;52.482;9.108;2023-03-02T15:41:34;13.67;;;5.53;;
21843;SDS011;11084;52.482;9.108;2023-03-02T15:44:00;10.37;;;5.23;;
21843;SDS011;11084;52.482;9.108;2023-03-02T15:46:26;13.10;;;4.77;;
21843;SDS011;11084;52.482;9.108;2023-03-02T15:48:52;10.27;;;4.73;;
21843;SDS011;11084;52.482;9.108;2023-03-02T15:51:18;9.40;;;4.23;;
21843;SDS011;11084;52.482;9.108;2023-03-02T15:53:45;10.13;;;3.07;;
21843;SDS011;11084;52.482;9.108;2023-03-02T15:56:12;8.20;;;4.13;;
21843;SDS011;11084;52.482;9.108;2023-03-02T15:58:47;14.00;;;5.00;;
21843;SDS011;11084;52.482;9.108;2023-03-02T16:01:14;11.97;;;5.73;;
21843;SDS011;11084;52.482;9.108;2023-03-02T16:03:41;9.70;;;5.47;;
21843;SDS011;11084;52.482;9.108;2023-03-02T16:06:09;12.23;;;5.83;;
21843;SDS011;11084;52.482;9.108;2023-03-02T16:08:35;16.23;;;6.03;;
21843;SDS011;11084;52.482;9.108;2023-03-02T16:11:03;12.73;;;5.53;;
21843;SDS011;11084;52.482;9.108;2023-03-02T16:13:31;12.43;;;5.90;;
21843;SDS011;11084;52.482;9.108;2023-03-02T16:16:04;12.83;;;4.73;;
21843;SDS011;11084;52.482;9.108;2023-03-02T16:18:31;11.87;;;5.00;;
21843;SDS011;11084;52.482;9.108;2023-03-02T16:20:57;11.90;;;5.30;;
21843;SDS011;11084;52.482;9.108;2023-03-02T16:23:23;10.00;;;5.60;;
21843;SDS011;11084;52.482;9.108;2023-03-02T16:25:49;12.60;;;4.93;;
21843;SDS011;11084;52.482;9.108;2023-03-02T16:28:16;8.37;;;5.07;;
21843;SDS011;11084;52.482;9.108;2023-03-02T16:30:44;8.63;;;4.67;;
21843;SDS011;11084;52.482;9.108;2023-03-02T16:33:12;11.13;;;5.50;;
21843;SDS011;11084;52.482;9.108;2023-03-02T16:35:41;8.13;;;4.80;;
21843;SDS011;11084;52.482;9.108;2023-03-02T16:38:07;10.00;;;4.60;;
21843;SDS011;11084;52.482;9.108;2023-03-02T16:40:34;9.77;;;5.67;;
21843;SDS011;11084;52.482;9.108;2023-03-02T16:43:04;13.20;;;6.87;;
21843;SDS011;11084;52.482;9.108;2023-03-02T16:45:33;10.33;;;4.97;;
21843;SDS011;11084;52.482;9.108;2023-03-02T16:47:59;14.70;;;5.67;;
21843;SDS011;11084;52.482;9.108;2023-03-02T16:50:26;12.83;;;5.70;;
21843;SDS011;11084;52.482;9.108;2023-03-02T16:52:53;10.00;;;5.47;;
21843;SDS011;11084;52.482;9.108;2023-03-02T16:55:19;13.47;;;5.73;;
21843;SDS011;11084;52.482;9.108;2023-03-02T16:57:45;9.77;;;4.67;;
21843;SDS011;11084;52.482;9.108;2023-03-02T17:00:12;9.43;;;4.27;;
21843;SDS011;11084;52.482;9.108;2023-03-02T17:02:41;11.80;;;4.90;;